createdAt,value
2017-09-05T00:00:41.361Z,1013.2
2017-09-05T00:01:50.187Z,1013.18
2017-09-05T00:02:59.094Z,1013.2
2017-09-05T00:04:07.958Z,1013.21
2017-09-05T00:05:16.817Z,1013.21
2017-09-05T00:06:25.732Z,1013.21
2017-09-05T00:07:34.564Z,1013.21
2017-09-05T00:08:43.394Z,1013.21
2017-09-05T00:09:52.220Z,1013.21
2017-09-05T00:11:01.055Z,1013.2
2017-09-05T00:12:10.032Z,1013.17
2017-09-05T00:13:18.936Z,1013.18
2017-09-05T00:14:27.917Z,1013.17
2017-09-05T00:15:36.996Z,1013.15
2017-09-05T00:16:45.830Z,1013.15
2017-09-05T00:17:54.678Z,1013.14
2017-09-05T00:19:03.834Z,1013.16
2017-09-05T00:20:12.661Z,1013.16
2017-09-05T00:21:21.496Z,1013.14
2017-09-05T00:22:30.324Z,1013.15
2017-09-05T00:23:39.152Z,1013.2
2017-09-05T00:24:47.982Z,1013.2
2017-09-05T00:25:56.806Z,1013.18
2017-09-05T00:27:05.642Z,1013.2
2017-09-05T00:28:14.530Z,1013.2
2017-09-05T00:29:24.354Z,1013.18
2017-09-05T00:30:33.298Z,1013.16
2017-09-05T00:31:42.746Z,1013.17
2017-09-05T00:32:52.162Z,1013.18
2017-09-05T00:34:02.181Z,1013.17
2017-09-05T00:35:11.412Z,1013.17
2017-09-05T00:36:20.750Z,1013.17
2017-09-05T00:37:29.617Z,1013.19
2017-09-05T00:38:38.968Z,1013.21
2017-09-05T00:39:48.768Z,1013.21
2017-09-05T00:40:58.440Z,1013.19
2017-09-05T00:42:07.269Z,1013.18
2017-09-05T00:43:16.101Z,1013.17
2017-09-05T00:44:24.986Z,1013.13
2017-09-05T00:45:35.126Z,1013.15
2017-09-05T00:46:44.653Z,1013.15
2017-09-05T00:47:54.382Z,1013.14
2017-09-05T00:49:03.638Z,1013.16
2017-09-05T00:50:13.316Z,1013.16
2017-09-05T00:51:23.204Z,1013.14
2017-09-05T00:52:32.322Z,1013.19
2017-09-05T00:53:41.151Z,1013.17
2017-09-05T00:54:50.849Z,1013.21
2017-09-05T00:56:00.132Z,1013.22
2017-09-05T00:57:09.507Z,1013.21
2017-09-05T00:58:18.642Z,1013.18
2017-09-05T00:59:28.052Z,1013.14
2017-09-05T01:00:37.461Z,1013.16
2017-09-05T01:01:47.053Z,1013.16
2017-09-05T01:02:56.378Z,1013.16
2017-09-05T01:04:05.208Z,1013.18
2017-09-05T01:05:14.033Z,1013.15
2017-09-05T01:06:22.864Z,1013.18
2017-09-05T01:07:31.694Z,1013.16
2017-09-05T01:08:40.519Z,1013.14
2017-09-05T01:09:49.349Z,1013.11
2017-09-05T01:10:58.175Z,1013.11
2017-09-05T01:12:06.997Z,1013.11
2017-09-05T01:13:15.829Z,1013.12
2017-09-05T01:14:24.664Z,1013.12
2017-09-05T01:15:33.491Z,1013.12
2017-09-05T01:16:42.315Z,1013.1
2017-09-05T01:17:51.146Z,1013.06
2017-09-05T01:18:59.975Z,1013.07
2017-09-05T01:20:08.807Z,1013.05
2017-09-05T01:21:17.670Z,1013.08
2017-09-05T01:22:26.463Z,1013.1
2017-09-05T01:23:35.290Z,1013.08
2017-09-05T01:24:44.117Z,1013.12
2017-09-05T01:25:52.947Z,1013.09
2017-09-05T01:27:01.780Z,1013.11
2017-09-05T01:28:10.610Z,1013.07
2017-09-05T01:29:19.438Z,1013.03
2017-09-05T01:30:28.270Z,1013.04
2017-09-05T01:31:37.093Z,1013.04
2017-09-05T01:32:45.922Z,1013.01
2017-09-05T01:33:54.746Z,1013.05
2017-09-05T01:35:03.579Z,1013.02
2017-09-05T01:36:12.405Z,1013.02
2017-09-05T01:37:21.557Z,1013.06
2017-09-05T01:38:30.389Z,1013.03
2017-09-05T01:39:39.214Z,1013.04
2017-09-05T01:40:48.039Z,1013.01
2017-09-05T01:41:56.869Z,1013.02
2017-09-05T01:43:05.700Z,1013.03
2017-09-05T01:44:14.529Z,1013.04
2017-09-05T01:45:23.356Z,1013.03
2017-09-05T01:46:32.186Z,1013.01
2017-09-05T01:47:41.013Z,1013.03
2017-09-05T01:48:50.165Z,1013.04
2017-09-05T01:49:58.996Z,1013.01
2017-09-05T01:51:07.825Z,1013
2017-09-05T01:52:16.651Z,1013.01
2017-09-05T01:53:25.478Z,1013
2017-09-05T01:54:34.306Z,1012.97
2017-09-05T01:55:43.136Z,1012.95
2017-09-05T01:56:51.968Z,1012.93
2017-09-05T01:58:00.796Z,1012.96
2017-09-05T01:59:09.625Z,1012.95
2017-09-05T02:00:18.450Z,1012.94
2017-09-05T02:01:27.602Z,1012.98
2017-09-05T02:02:36.431Z,1013.01
2017-09-05T02:03:45.256Z,1012.99
2017-09-05T02:04:54.413Z,1013.02
2017-09-05T02:06:03.237Z,1013.03
2017-09-05T02:07:12.071Z,1013.02
2017-09-05T02:08:20.902Z,1013.02
2017-09-05T02:09:29.731Z,1012.99
2017-09-05T02:10:38.559Z,1013
2017-09-05T02:11:47.388Z,1012.95
2017-09-05T02:12:56.542Z,1012.96
2017-09-05T02:14:05.373Z,1012.98
2017-09-05T02:15:14.199Z,1012.96
2017-09-05T02:16:23.025Z,1012.98
2017-09-05T02:17:31.858Z,1012.97
2017-09-05T02:18:40.689Z,1012.98
2017-09-05T02:19:49.516Z,1012.98
2017-09-05T02:20:58.340Z,1012.99
2017-09-05T02:22:07.167Z,1012.97
2017-09-05T02:23:15.998Z,1012.96
2017-09-05T02:24:24.827Z,1012.98
2017-09-05T02:25:33.661Z,1013
2017-09-05T02:26:42.485Z,1012.95
2017-09-05T02:27:51.312Z,1012.97
2017-09-05T02:29:00.139Z,1012.97
2017-09-05T02:30:08.967Z,1013.03
2017-09-05T02:31:17.792Z,1013
2017-09-05T02:32:26.617Z,1013.05
2017-09-05T02:33:35.443Z,1013.01
2017-09-05T02:34:44.269Z,1012.96
2017-09-05T02:35:53.100Z,1012.98
2017-09-05T02:37:01.934Z,1012.96
2017-09-05T02:38:10.763Z,1012.99
2017-09-05T02:39:19.590Z,1012.89
2017-09-05T02:40:28.412Z,1012.93
2017-09-05T02:41:37.240Z,1012.95
2017-09-05T02:42:46.068Z,1012.9
2017-09-05T02:43:54.896Z,1012.93
2017-09-05T02:45:04.049Z,1012.87
2017-09-05T02:46:12.879Z,1012.87
2017-09-05T02:47:21.705Z,1012.85
2017-09-05T02:48:30.532Z,1012.88
2017-09-05T02:49:39.362Z,1012.91
2017-09-05T02:50:48.195Z,1012.89
2017-09-05T02:51:57.021Z,1012.87
2017-09-05T02:53:05.849Z,1012.87
2017-09-05T02:54:14.676Z,1012.85
2017-09-05T02:55:23.866Z,1012.85
2017-09-05T02:56:32.695Z,1012.94
2017-09-05T02:57:41.528Z,1012.94
2017-09-05T02:58:50.353Z,1012.94
2017-09-05T02:59:59.515Z,1012.99
2017-09-05T03:01:08.342Z,1012.99
2017-09-05T03:02:17.168Z,1013.05
2017-09-05T03:03:25.995Z,1013.05
2017-09-05T03:04:34.835Z,1013.01
2017-09-05T03:05:43.656Z,1013.04
2017-09-05T03:06:52.480Z,1013.01
2017-09-05T03:08:01.637Z,1013
2017-09-05T03:09:10.482Z,1012.99
2017-09-05T03:10:19.310Z,1012.99
2017-09-05T03:11:28.138Z,1012.97
2017-09-05T03:12:36.967Z,1012.98
2017-09-05T03:13:45.799Z,1012.98
2017-09-05T03:14:54.625Z,1012.94
2017-09-05T03:16:03.455Z,1012.94
2017-09-05T03:17:12.280Z,1012.93
2017-09-05T03:18:21.111Z,1012.93
2017-09-05T03:19:29.937Z,1012.9
2017-09-05T03:20:38.766Z,1012.94
2017-09-05T03:21:47.590Z,1012.99
2017-09-05T03:22:56.417Z,1012.97
2017-09-05T03:24:05.243Z,1012.95
2017-09-05T03:25:14.070Z,1012.93
2017-09-05T03:26:22.900Z,1012.93
2017-09-05T03:27:31.724Z,1012.91
2017-09-05T03:28:40.549Z,1012.9
2017-09-05T03:29:49.374Z,1012.89
2017-09-05T03:30:58.212Z,1012.88
2017-09-05T03:32:07.039Z,1012.86
2017-09-05T03:33:15.866Z,1012.87
2017-09-05T03:34:24.696Z,1012.85
2017-09-05T03:35:33.522Z,1012.88
2017-09-05T03:36:42.356Z,1012.86
2017-09-05T03:37:51.179Z,1012.84
2017-09-05T03:39:00.005Z,1012.86
2017-09-05T03:40:08.832Z,1012.87
2017-09-05T03:41:17.660Z,1012.91
2017-09-05T03:42:26.490Z,1012.91
2017-09-05T03:43:35.647Z,1012.89
2017-09-05T03:44:44.469Z,1012.9
2017-09-05T03:45:53.299Z,1012.88
2017-09-05T03:47:02.129Z,1012.89
2017-09-05T03:48:10.956Z,1012.93
2017-09-05T03:49:19.787Z,1012.91
2017-09-05T03:50:28.615Z,1012.87
2017-09-05T03:51:37.446Z,1012.91
2017-09-05T03:52:46.274Z,1012.87
2017-09-05T03:53:55.106Z,1012.88
2017-09-05T03:55:03.932Z,1012.83
2017-09-05T03:56:12.762Z,1012.91
2017-09-05T03:57:21.590Z,1012.88
2017-09-05T03:58:30.419Z,1012.93
2017-09-05T03:59:39.250Z,1012.91
2017-09-05T04:00:48.076Z,1012.9
2017-09-05T04:01:56.901Z,1012.92
2017-09-05T04:03:05.727Z,1012.95
2017-09-05T04:04:14.559Z,1012.92
2017-09-05T04:05:23.387Z,1012.98
2017-09-05T04:06:32.216Z,1012.99
2017-09-05T04:07:41.042Z,1013.02
2017-09-05T04:08:49.863Z,1013.05
2017-09-05T04:09:58.694Z,1013.02
2017-09-05T04:11:07.526Z,1013.07
2017-09-05T04:12:16.351Z,1013.08
2017-09-05T04:13:25.179Z,1013.07
2017-09-05T04:14:34.007Z,1013.1
2017-09-05T04:15:42.835Z,1013.08
2017-09-05T04:16:51.666Z,1013.1
2017-09-05T04:18:00.496Z,1013.11
2017-09-05T04:19:09.320Z,1013.14
2017-09-05T04:20:18.150Z,1013.1
2017-09-05T04:21:26.977Z,1013.1
2017-09-05T04:22:35.804Z,1013.15
2017-09-05T04:23:44.634Z,1013.12
2017-09-05T04:24:53.460Z,1013.16
2017-09-05T04:26:02.286Z,1013.14
2017-09-05T04:27:11.112Z,1013.09
2017-09-05T04:28:19.944Z,1013.13
2017-09-05T04:29:28.769Z,1013.12
2017-09-05T04:30:37.593Z,1013.1
2017-09-05T04:31:46.422Z,1013.08
2017-09-05T04:32:55.248Z,1013.07
2017-09-05T04:34:04.080Z,1013.08
2017-09-05T04:35:12.903Z,1013.07
2017-09-05T04:36:21.732Z,1013.08
2017-09-05T04:37:30.557Z,1013.06
2017-09-05T04:38:39.389Z,1013.09
2017-09-05T04:39:48.214Z,1013.1
2017-09-05T04:40:57.040Z,1013.12
2017-09-05T04:42:05.870Z,1013.13
2017-09-05T04:43:14.694Z,1013.18
2017-09-05T04:44:23.520Z,1013.13
2017-09-05T04:45:32.351Z,1013.15
2017-09-05T04:46:41.176Z,1013.13
2017-09-05T04:47:50.004Z,1013.12
2017-09-05T04:48:58.835Z,1013.12
2017-09-05T04:50:07.660Z,1013.13
2017-09-05T04:51:16.491Z,1013.09
2017-09-05T04:52:25.319Z,1013.11
2017-09-05T04:53:34.146Z,1013.08
2017-09-05T04:54:42.978Z,1013.13
2017-09-05T04:55:51.803Z,1013.11
2017-09-05T04:57:00.633Z,1013.13
2017-09-05T04:58:09.465Z,1013.13
2017-09-05T04:59:18.295Z,1013.1
2017-09-05T05:00:27.121Z,1013.11
2017-09-05T05:01:35.949Z,1013.12
2017-09-05T05:02:44.777Z,1013.13
2017-09-05T05:03:53.605Z,1013.14
2017-09-05T05:05:02.432Z,1013.15
2017-09-05T05:06:11.408Z,1013.16
2017-09-05T05:07:20.238Z,1013.17
2017-09-05T05:08:29.063Z,1013.15
2017-09-05T05:09:37.892Z,1013.16
2017-09-05T05:10:46.722Z,1013.17
2017-09-05T05:11:55.546Z,1013.21
2017-09-05T05:13:04.375Z,1013.21
2017-09-05T05:14:13.203Z,1013.19
2017-09-05T05:15:22.029Z,1013.21
2017-09-05T05:16:30.858Z,1013.19
2017-09-05T05:17:39.840Z,1013.21
2017-09-05T05:18:48.667Z,1013.23
2017-09-05T05:19:57.497Z,1013.25
2017-09-05T05:21:06.326Z,1013.26
2017-09-05T05:22:15.150Z,1013.24
2017-09-05T05:23:23.985Z,1013.28
2017-09-05T05:24:33.139Z,1013.29
2017-09-05T05:25:41.969Z,1013.28
2017-09-05T05:26:50.805Z,1013.26
2017-09-05T05:27:59.629Z,1013.25
2017-09-05T05:29:08.456Z,1013.25
2017-09-05T05:30:17.283Z,1013.25
2017-09-05T05:31:26.114Z,1013.26
2017-09-05T05:32:34.937Z,1013.3
2017-09-05T05:33:43.768Z,1013.29
2017-09-05T05:34:52.592Z,1013.35
2017-09-05T05:36:01.424Z,1013.32
2017-09-05T05:37:10.253Z,1013.35
2017-09-05T05:38:19.075Z,1013.34
2017-09-05T05:39:27.906Z,1013.38
2017-09-05T05:40:36.736Z,1013.41
2017-09-05T05:41:45.564Z,1013.41
2017-09-05T05:42:54.393Z,1013.45
2017-09-05T05:44:03.212Z,1013.41
2017-09-05T05:45:12.039Z,1013.4
2017-09-05T05:46:20.868Z,1013.36
2017-09-05T05:47:29.694Z,1013.42
2017-09-05T05:48:38.522Z,1013.45
2017-09-05T05:49:47.351Z,1013.47
2017-09-05T05:50:56.174Z,1013.47
2017-09-05T05:52:04.999Z,1013.47
2017-09-05T05:53:13.835Z,1013.48
2017-09-05T05:54:22.661Z,1013.47
2017-09-05T05:55:31.490Z,1013.45
2017-09-05T05:56:40.318Z,1013.43
2017-09-05T05:57:49.150Z,1013.48
2017-09-05T05:58:57.977Z,1013.42
2017-09-05T06:00:07.127Z,1013.44
2017-09-05T06:01:15.958Z,1013.42
2017-09-05T06:02:24.784Z,1013.41
2017-09-05T06:03:33.616Z,1013.44
2017-09-05T06:04:42.762Z,1013.41
2017-09-05T06:05:51.592Z,1013.38
2017-09-05T06:07:00.421Z,1013.4
2017-09-05T06:08:09.249Z,1013.44
2017-09-05T06:09:18.078Z,1013.43
2017-09-05T06:10:26.909Z,1013.44
2017-09-05T06:11:35.739Z,1013.41
2017-09-05T06:12:44.562Z,1013.46
2017-09-05T06:13:53.389Z,1013.41
2017-09-05T06:15:02.230Z,1013.44
2017-09-05T06:16:11.058Z,1013.44
2017-09-05T06:17:19.884Z,1013.46
2017-09-05T06:18:28.711Z,1013.5
2017-09-05T06:19:37.541Z,1013.52
2017-09-05T06:20:46.367Z,1013.5
2017-09-05T06:21:55.237Z,1013.55
2017-09-05T06:23:04.025Z,1013.5
2017-09-05T06:24:12.851Z,1013.52
2017-09-05T06:25:21.680Z,1013.52
2017-09-05T06:26:30.508Z,1013.53
2017-09-05T06:27:39.340Z,1013.53
2017-09-05T06:28:48.219Z,1013.51
2017-09-05T06:29:57.042Z,1013.53
2017-09-05T06:31:05.867Z,1013.53
2017-09-05T06:32:14.699Z,1013.47
2017-09-05T06:33:23.527Z,1013.5
2017-09-05T06:34:32.358Z,1013.47
2017-09-05T06:35:41.193Z,1013.48
2017-09-05T06:36:50.024Z,1013.48
2017-09-05T06:37:58.849Z,1013.49
2017-09-05T06:39:07.677Z,1013.46
2017-09-05T06:40:16.505Z,1013.46
2017-09-05T06:41:25.338Z,1013.47
2017-09-05T06:42:34.171Z,1013.47
2017-09-05T06:43:42.996Z,1013.46
2017-09-05T06:44:51.826Z,1013.42
2017-09-05T06:46:00.655Z,1013.46
2017-09-05T06:47:09.487Z,1013.46
2017-09-05T06:48:18.314Z,1013.44
2017-09-05T06:49:27.239Z,1013.44
2017-09-05T06:50:36.068Z,1013.44
2017-09-05T06:51:44.893Z,1013.46
2017-09-05T06:52:53.810Z,1013.46
2017-09-05T06:54:02.643Z,1013.45
2017-09-05T06:55:11.543Z,1013.45
2017-09-05T06:56:20.408Z,1013.46
2017-09-05T06:57:29.316Z,1013.41
2017-09-05T06:58:38.811Z,1013.42
2017-09-05T06:59:47.753Z,1013.43
2017-09-05T07:00:56.615Z,1013.45
2017-09-05T07:02:05.905Z,1013.45
2017-09-05T07:03:14.881Z,1013.42
2017-09-05T07:04:23.738Z,1013.47
2017-09-05T07:05:32.564Z,1013.48
2017-09-05T07:06:41.394Z,1013.45
2017-09-05T07:07:50.224Z,1013.51
2017-09-05T07:08:59.044Z,1013.5
2017-09-05T07:10:07.876Z,1013.51
2017-09-05T07:11:16.705Z,1013.48
2017-09-05T07:12:25.536Z,1013.5
2017-09-05T07:13:34.364Z,1013.47
2017-09-05T07:14:43.200Z,1013.44
2017-09-05T07:15:52.027Z,1013.45
2017-09-05T07:17:00.863Z,1013.43
2017-09-05T07:18:09.687Z,1013.44
2017-09-05T07:19:18.519Z,1013.42
2017-09-05T07:20:27.347Z,1013.45
2017-09-05T07:21:36.176Z,1013.47
2017-09-05T07:22:45.008Z,1013.47
2017-09-05T07:23:53.836Z,1013.46
2017-09-05T07:25:02.669Z,1013.44
2017-09-05T07:26:11.496Z,1013.47
2017-09-05T07:27:20.325Z,1013.5
2017-09-05T07:28:29.157Z,1013.48
2017-09-05T07:29:37.984Z,1013.52
2017-09-05T07:30:46.812Z,1013.54
2017-09-05T07:31:55.641Z,1013.55
2017-09-05T07:33:04.471Z,1013.55
2017-09-05T07:34:13.302Z,1013.5
2017-09-05T07:35:22.129Z,1013.55
2017-09-05T07:36:30.960Z,1013.51
2017-09-05T07:37:39.789Z,1013.54
2017-09-05T07:38:48.615Z,1013.57
2017-09-05T07:39:57.443Z,1013.54
2017-09-05T07:41:06.267Z,1013.58
2017-09-05T07:42:15.096Z,1013.61
2017-09-05T07:43:23.924Z,1013.59
2017-09-05T07:44:32.756Z,1013.64
2017-09-05T07:45:41.590Z,1013.6
2017-09-05T07:46:50.417Z,1013.64
2017-09-05T07:47:59.245Z,1013.55
2017-09-05T07:49:08.070Z,1013.61
2017-09-05T07:50:16.901Z,1013.59
2017-09-05T07:51:25.733Z,1013.61
2017-09-05T07:52:34.562Z,1013.58
2017-09-05T07:53:43.393Z,1013.62
2017-09-05T07:54:52.543Z,1013.62
2017-09-05T07:56:01.377Z,1013.57
2017-09-05T07:57:10.203Z,1013.61
2017-09-05T07:58:19.038Z,1013.55
2017-09-05T07:59:27.861Z,1013.6
2017-09-05T08:00:36.696Z,1013.63
2017-09-05T08:01:45.522Z,1013.62
2017-09-05T08:02:54.356Z,1013.61
2017-09-05T08:04:03.509Z,1013.64
2017-09-05T08:05:12.337Z,1013.61
2017-09-05T08:06:21.492Z,1013.67
2017-09-05T08:07:30.320Z,1013.67
2017-09-05T08:08:39.152Z,1013.69
2017-09-05T08:09:47.979Z,1013.71
2017-09-05T08:10:56.805Z,1013.7
2017-09-05T08:12:05.638Z,1013.74
2017-09-05T08:13:14.471Z,1013.74
2017-09-05T08:14:23.302Z,1013.71
2017-09-05T08:15:32.136Z,1013.7
2017-09-05T08:16:40.970Z,1013.78
2017-09-05T08:17:49.795Z,1013.69
2017-09-05T08:18:58.621Z,1013.68
2017-09-05T08:20:07.451Z,1013.76
2017-09-05T08:21:16.599Z,1013.74
2017-09-05T08:22:25.431Z,1013.77
2017-09-05T08:23:34.260Z,1013.8
2017-09-05T08:24:43.094Z,1013.79
2017-09-05T08:25:51.927Z,1013.8
2017-09-05T08:27:00.754Z,1013.79
2017-09-05T08:28:09.585Z,1013.79
2017-09-05T08:29:18.439Z,1013.8
2017-09-05T08:30:27.248Z,1013.78
2017-09-05T08:31:36.079Z,1013.81
2017-09-05T08:32:44.914Z,1013.8
2017-09-05T08:33:53.744Z,1013.84
2017-09-05T08:35:02.575Z,1013.8
2017-09-05T08:36:11.405Z,1013.8
2017-09-05T08:37:20.237Z,1013.78
2017-09-05T08:38:29.071Z,1013.78
2017-09-05T08:39:37.904Z,1013.84
2017-09-05T08:40:46.733Z,1013.81
2017-09-05T08:41:55.564Z,1013.85
2017-09-05T08:43:04.395Z,1013.81
2017-09-05T08:44:13.224Z,1013.85
2017-09-05T08:45:22.052Z,1013.81
2017-09-05T08:46:30.883Z,1013.8
2017-09-05T08:47:39.715Z,1013.78
2017-09-05T08:48:48.541Z,1013.77
2017-09-05T08:49:57.372Z,1013.77
2017-09-05T08:51:06.208Z,1013.76
2017-09-05T08:52:15.034Z,1013.75
2017-09-05T08:53:23.867Z,1013.75
2017-09-05T08:54:32.695Z,1013.73
2017-09-05T08:55:41.524Z,1013.74
2017-09-05T08:56:50.351Z,1013.75
2017-09-05T08:57:59.185Z,1013.72
2017-09-05T08:59:08.015Z,1013.72
2017-09-05T09:00:16.851Z,1013.72
2017-09-05T09:01:25.677Z,1013.79
2017-09-05T09:02:34.513Z,1013.76
2017-09-05T09:03:43.672Z,1013.79
2017-09-05T09:04:52.508Z,1013.76
2017-09-05T09:06:01.476Z,1013.73
2017-09-05T09:07:10.725Z,1013.77
2017-09-05T09:08:19.701Z,1013.77
2017-09-05T09:09:28.533Z,1013.73
2017-09-05T09:10:37.717Z,1013.79
2017-09-05T09:11:46.887Z,1013.75
2017-09-05T09:12:55.895Z,1013.76
2017-09-05T09:14:04.751Z,1013.77
2017-09-05T09:15:13.585Z,1013.74
2017-09-05T09:16:22.462Z,1013.75
2017-09-05T09:17:31.603Z,1013.78
2017-09-05T09:18:40.767Z,1013.76
2017-09-05T09:19:49.596Z,1013.78
2017-09-05T09:20:59.103Z,1013.77
2017-09-05T09:22:07.934Z,1013.79
2017-09-05T09:23:16.764Z,1013.74
2017-09-05T09:24:25.601Z,1013.72
2017-09-05T09:25:34.429Z,1013.73
2017-09-05T09:26:43.260Z,1013.74
2017-09-05T09:27:52.118Z,1013.74
2017-09-05T09:29:00.948Z,1013.76
2017-09-05T09:30:09.810Z,1013.79
2017-09-05T09:31:18.862Z,1013.77
2017-09-05T09:32:27.704Z,1013.77
2017-09-05T09:33:36.538Z,1013.76
2017-09-05T09:34:45.451Z,1013.76
2017-09-05T09:35:54.284Z,1013.77
2017-09-05T09:37:03.116Z,1013.76
2017-09-05T09:38:11.955Z,1013.76
2017-09-05T09:39:20.783Z,1013.8
2017-09-05T09:40:29.618Z,1013.75
2017-09-05T09:41:38.461Z,1013.77
2017-09-05T09:42:47.616Z,1013.77
2017-09-05T09:43:56.454Z,1013.79
2017-09-05T09:45:05.287Z,1013.81
2017-09-05T09:46:14.439Z,1013.78
2017-09-05T09:47:23.275Z,1013.78
2017-09-05T09:48:32.146Z,1013.78
2017-09-05T09:49:40.991Z,1013.8
2017-09-05T09:50:49.865Z,1013.79
2017-09-05T09:51:58.748Z,1013.73
2017-09-05T09:53:07.620Z,1013.76
2017-09-05T09:54:16.494Z,1013.74
2017-09-05T09:55:25.677Z,1013.74
2017-09-05T09:56:34.539Z,1013.73
2017-09-05T09:57:43.429Z,1013.69
2017-09-05T09:58:52.669Z,1013.74
2017-09-05T10:00:01.566Z,1013.76
2017-09-05T10:01:10.463Z,1013.71
2017-09-05T10:02:19.297Z,1013.76
2017-09-05T10:03:28.485Z,1013.7
2017-09-05T10:04:37.314Z,1013.74
2017-09-05T10:05:46.271Z,1013.76
2017-09-05T10:06:55.569Z,1013.71
2017-09-05T10:08:04.442Z,1013.74
2017-09-05T10:09:13.343Z,1013.73
2017-09-05T10:10:22.537Z,1013.74
2017-09-05T10:11:31.468Z,1013.7
2017-09-05T10:12:40.299Z,1013.67
2017-09-05T10:13:49.136Z,1013.68
2017-09-05T10:14:58.037Z,1013.64
2017-09-05T10:16:06.874Z,1013.64
2017-09-05T10:17:15.910Z,1013.63
2017-09-05T10:18:24.745Z,1013.65
2017-09-05T10:19:33.583Z,1013.65
2017-09-05T10:20:42.421Z,1013.63
2017-09-05T10:21:51.587Z,1013.56
2017-09-05T10:23:00.417Z,1013.57
2017-09-05T10:24:09.249Z,1013.6
2017-09-05T10:25:18.077Z,1013.57
2017-09-05T10:26:26.911Z,1013.6
2017-09-05T10:27:35.765Z,1013.55
2017-09-05T10:28:44.594Z,1013.59
2017-09-05T10:29:53.427Z,1013.55
2017-09-05T10:31:02.256Z,1013.56
2017-09-05T10:32:11.090Z,1013.56
2017-09-05T10:33:19.927Z,1013.55
2017-09-05T10:34:28.763Z,1013.55
2017-09-05T10:35:37.709Z,1013.58
2017-09-05T10:36:46.543Z,1013.54
2017-09-05T10:37:55.370Z,1013.54
2017-09-05T10:39:04.207Z,1013.52
2017-09-05T10:40:13.039Z,1013.56
2017-09-05T10:41:21.877Z,1013.55
2017-09-05T10:42:30.710Z,1013.5
2017-09-05T10:43:39.565Z,1013.5
2017-09-05T10:44:48.394Z,1013.49
2017-09-05T10:45:57.556Z,1013.49
2017-09-05T10:47:06.391Z,1013.48
2017-09-05T10:48:15.317Z,1013.48
2017-09-05T10:49:24.150Z,1013.49
2017-09-05T10:50:32.985Z,1013.51
2017-09-05T10:51:41.819Z,1013.5
2017-09-05T10:52:50.985Z,1013.57
2017-09-05T10:53:59.821Z,1013.54
2017-09-05T10:55:08.658Z,1013.55
2017-09-05T10:56:17.489Z,1013.54
2017-09-05T10:57:26.322Z,1013.52
2017-09-05T10:58:35.158Z,1013.55
2017-09-05T10:59:44.268Z,1013.52
2017-09-05T11:00:53.102Z,1013.52
2017-09-05T11:02:01.991Z,1013.47
2017-09-05T11:03:10.827Z,1013.5
2017-09-05T11:04:19.691Z,1013.51
2017-09-05T11:05:28.526Z,1013.47
2017-09-05T11:06:37.358Z,1013.48
2017-09-05T11:07:46.937Z,1013.47
2017-09-05T11:08:55.773Z,1013.47
2017-09-05T11:10:04.611Z,1013.49
2017-09-05T11:11:13.442Z,1013.39
2017-09-05T11:12:22.282Z,1013.46
2017-09-05T11:13:31.109Z,1013.39
2017-09-05T11:14:40.408Z,1013.47
2017-09-05T11:15:49.833Z,1013.41
2017-09-05T11:16:58.668Z,1013.43
2017-09-05T11:18:07.821Z,1013.39
2017-09-05T11:19:16.657Z,1013.44
2017-09-05T11:20:25.488Z,1013.45
2017-09-05T11:21:34.325Z,1013.42
2017-09-05T11:22:43.170Z,1013.38
2017-09-05T11:23:52.065Z,1013.4
2017-09-05T11:25:01.586Z,1013.39
2017-09-05T11:26:10.424Z,1013.36
2017-09-05T11:27:20.246Z,1013.37
2017-09-05T11:28:29.524Z,1013.31
2017-09-05T11:29:38.708Z,1013.33
2017-09-05T11:30:47.590Z,1013.29
2017-09-05T11:31:56.607Z,1013.28
2017-09-05T11:33:05.486Z,1013.27
2017-09-05T11:34:15.213Z,1013.33
2017-09-05T11:35:24.874Z,1013.28
2017-09-05T11:36:34.514Z,1013.29
2017-09-05T11:37:43.347Z,1013.28
2017-09-05T11:38:52.186Z,1013.33
2017-09-05T11:40:01.021Z,1013.27
2017-09-05T11:41:09.854Z,1013.33
2017-09-05T11:42:18.686Z,1013.29
2017-09-05T11:43:27.520Z,1013.3
2017-09-05T11:44:36.698Z,1013.31
2017-09-05T11:45:45.913Z,1013.25
2017-09-05T11:46:54.747Z,1013.24
2017-09-05T11:48:03.579Z,1013.21
2017-09-05T11:49:12.559Z,1013.21
2017-09-05T11:50:21.437Z,1013.2
2017-09-05T11:51:30.309Z,1013.16
2017-09-05T11:52:39.143Z,1013.18
2017-09-05T11:53:47.975Z,1013.17
2017-09-05T11:54:56.812Z,1013.14
2017-09-05T11:56:05.646Z,1013.21
2017-09-05T11:57:14.478Z,1013.17
2017-09-05T11:58:23.309Z,1013.18
2017-09-05T11:59:32.147Z,1013.18
2017-09-05T12:00:40.984Z,1013.15
2017-09-05T12:01:49.813Z,1013.14
2017-09-05T12:02:58.650Z,1013.11
2017-09-05T12:04:07.487Z,1013.14
2017-09-05T12:05:16.324Z,1013.17
2017-09-05T12:06:25.486Z,1013.11
2017-09-05T12:07:34.318Z,1013.1
2017-09-05T12:08:43.154Z,1013.11
2017-09-05T12:09:52.310Z,1013.06
2017-09-05T12:11:01.143Z,1013.02
2017-09-05T12:12:09.977Z,1012.99
2017-09-05T12:13:18.814Z,1012.97
2017-09-05T12:14:27.645Z,1012.99
2017-09-05T12:15:36.795Z,1012.95
2017-09-05T12:16:45.636Z,1012.92
2017-09-05T12:17:54.471Z,1012.88
2017-09-05T12:19:03.302Z,1012.92
2017-09-05T12:20:12.137Z,1012.87
2017-09-05T12:21:21.295Z,1012.89
2017-09-05T12:22:30.127Z,1012.96
2017-09-05T12:23:39.284Z,1012.98
2017-09-05T12:24:48.122Z,1013
2017-09-05T12:25:56.953Z,1012.99
2017-09-05T12:27:05.790Z,1013.05
2017-09-05T12:28:14.621Z,1013.03
2017-09-05T12:29:23.454Z,1012.98
2017-09-05T12:30:32.286Z,1012.97
2017-09-05T12:31:41.124Z,1012.97
2017-09-05T12:32:49.953Z,1012.92
2017-09-05T12:33:58.789Z,1012.91
2017-09-05T12:35:07.616Z,1012.91
2017-09-05T12:36:16.447Z,1012.91
2017-09-05T12:37:25.278Z,1012.92
2017-09-05T12:38:34.120Z,1012.91
2017-09-05T12:39:42.950Z,1012.87
2017-09-05T12:40:51.788Z,1012.92
2017-09-05T12:42:00.619Z,1012.9
2017-09-05T12:43:09.445Z,1012.87
2017-09-05T12:44:18.284Z,1012.92
2017-09-05T12:45:27.119Z,1012.9
2017-09-05T12:46:35.950Z,1012.9
2017-09-05T12:47:44.784Z,1012.9
2017-09-05T12:48:53.616Z,1012.88
2017-09-05T12:50:02.449Z,1012.91
2017-09-05T12:51:11.612Z,1012.9
2017-09-05T12:52:20.448Z,1012.88
2017-09-05T12:53:29.278Z,1012.83
2017-09-05T12:54:38.111Z,1012.83
2017-09-05T12:55:46.946Z,1012.84
2017-09-05T12:56:55.780Z,1012.87
2017-09-05T12:58:04.617Z,1012.94
2017-09-05T12:59:13.453Z,1012.85
2017-09-05T13:00:22.285Z,1012.78
2017-09-05T13:01:31.117Z,1012.8
2017-09-05T13:02:39.957Z,1012.83
2017-09-05T13:03:48.789Z,1012.8
2017-09-05T13:04:57.624Z,1012.8
2017-09-05T13:06:06.459Z,1012.76
2017-09-05T13:07:15.293Z,1012.8
2017-09-05T13:08:24.130Z,1012.75
2017-09-05T13:09:32.964Z,1012.79
2017-09-05T13:10:41.797Z,1012.77
2017-09-05T13:11:50.632Z,1012.75
2017-09-05T13:12:59.464Z,1012.72
2017-09-05T13:14:08.302Z,1012.69
2017-09-05T13:15:17.133Z,1012.62
2017-09-05T13:16:25.971Z,1012.65
2017-09-05T13:17:34.802Z,1012.63
2017-09-05T13:18:43.638Z,1012.64
2017-09-05T13:19:52.475Z,1012.66
2017-09-05T13:21:01.310Z,1012.59
2017-09-05T13:22:10.147Z,1012.62
2017-09-05T13:23:18.984Z,1012.67
2017-09-05T13:24:28.155Z,1012.58
2017-09-05T13:25:36.984Z,1012.58
2017-09-05T13:26:45.828Z,1012.54
2017-09-05T13:27:54.660Z,1012.43
2017-09-05T13:29:03.493Z,1012.5
2017-09-05T13:30:12.327Z,1012.51
2017-09-05T13:31:21.157Z,1012.49
2017-09-05T13:32:29.989Z,1012.51
2017-09-05T13:33:38.823Z,1012.56
2017-09-05T13:34:47.656Z,1012.53
2017-09-05T13:35:56.490Z,1012.51
2017-09-05T13:37:05.325Z,1012.54
2017-09-05T13:38:14.157Z,1012.56
2017-09-05T13:39:22.993Z,1012.55
2017-09-05T13:40:31.825Z,1012.56
2017-09-05T13:41:40.663Z,1012.55
2017-09-05T13:42:49.495Z,1012.52
2017-09-05T13:43:58.328Z,1012.53
2017-09-05T13:45:07.164Z,1012.51
2017-09-05T13:46:16.001Z,1012.52
2017-09-05T13:47:24.835Z,1012.56
2017-09-05T13:48:34.006Z,1012.57
2017-09-05T13:49:42.838Z,1012.56
2017-09-05T13:50:51.672Z,1012.58
2017-09-05T13:52:00.510Z,1012.58
2017-09-05T13:53:09.343Z,1012.54
2017-09-05T13:54:18.177Z,1012.54
2017-09-05T13:55:27.012Z,1012.57
2017-09-05T13:56:35.844Z,1012.54